»·PEaware :: SWA225 KBUR-KLAS

SWA225 :: KBUR-KLAS

FLIGHT INFORMATION

Flight Status: Arrived
Operator:
Southwest Airlines
More flights by this operator :: More flights under this callsign
Pilot: Eric W. (23219)
Aircraft: BOEING 737-800
(B738)
More flights by this aircraft type
Origin: KBUR Bob Hope-Burbank
United States
Destination: KLAS McCarran Intl
United States
More flights between these airports :: More routes between these airports
Route: +SLAPP1 MISEN KEPEC6
File this flight plan on PilotEdge
Remarks:
Altitude:
(Current/Filed)
0ft
Speed:
(Current/Filed)
0kts
Departed: 06-Feb-19 10:37 PM
Arrived: 06-Feb-19 11:23 PM
Distance/Time
Traveled:
194nm/0:46
Distance/Time
To Go:
Arrived

Flight Plot

Page will automatically refresh every two minutes.

Flight plan parsing failed; only flown route is shown


Map Options




Map Legend


Flown Route
Filed Route
Departure Airport
Arrival Airport
Navaid (VOR, NDB)
Fix

Horizontal Profiles

Position Reports

Time Latitude Longitude Heading Altitude Ground
Speed
06-Feb-19 22:23 34.196755 -118.350975 180 729ft 0kts
06-Feb-19 22:24 34.196754 -118.350975 180 729ft 0kts
06-Feb-19 22:25 34.196753 -118.350975 180 729ft 0kts
06-Feb-19 22:26 34.196751 -118.350975 180 729ft 0kts
06-Feb-19 22:27 34.196750 -118.350975 180 729ft 0kts
06-Feb-19 22:28 34.196749 -118.350975 180 729ft 0kts
06-Feb-19 22:29 34.197659 -118.352249 275 729ft 17kts
06-Feb-19 22:30 34.199852 -118.355704 347 729ft 13kts
06-Feb-19 22:31 34.202935 -118.356569 347 729ft 17kts
06-Feb-19 22:32 34.206916 -118.357678 346 729ft 15kts
06-Feb-19 22:33 34.209817 -118.358478 346 729ft 7kts
06-Feb-19 22:34 34.211386 -118.358935 336 729ft 13kts
06-Feb-19 22:35 34.211846 -118.359427 310 729ft 0kts
06-Feb-19 22:36 34.205087 -118.358492 167 729ft 126kts
06-Feb-19 22:37 34.160533 -118.381304 222 3499ft 211kts
06-Feb-19 22:38 34.108702 -118.436956 226 4006ft 264kts
06-Feb-19 22:39 34.130399 -118.497832 1 5885ft 257kts
06-Feb-19 22:40 34.198241 -118.466451 20 9808ft 267kts
06-Feb-19 22:42 34.272371 -118.427425 18 12218ft 325kts
06-Feb-19 22:43 34.359382 -118.381461 17 15070ft 352kts
06-Feb-19 22:44 34.452055 -118.335164 20 17920ft 373kts
06-Feb-19 22:45 34.538904 -118.257307 32 19920ft 399kts
06-Feb-19 22:46 34.625531 -118.169996 32 22381ft 412kts
06-Feb-19 22:47 34.680955 -118.040975 74 24423ft 461kts
06-Feb-19 22:48 34.697273 -117.885411 81 25249ft 467kts
06-Feb-19 22:49 34.705980 -117.728056 82 25240ft 467kts
06-Feb-19 22:50 34.711922 -117.570012 82 25242ft 468kts
06-Feb-19 22:51 34.736821 -117.417971 65 25248ft 455kts
06-Feb-19 22:52 34.776628 -117.271757 65 25243ft 455kts
06-Feb-19 22:53 34.815480 -117.124958 65 25235ft 456kts
06-Feb-19 22:54 34.854563 -116.978439 64 25243ft 456kts
06-Feb-19 22:55 34.892978 -116.830917 64 25249ft 455kts
06-Feb-19 22:56 34.940300 -116.690349 48 25153ft 435kts
06-Feb-19 22:57 35.006842 -116.573572 45 24284ft 410kts
06-Feb-19 22:57 35.060881 -116.477693 45 24257ft 410kts
06-Feb-19 22:59 35.141852 -116.353506 34 23825ft 387kts
06-Feb-19 23:00 35.215931 -116.261163 34 22087ft 380kts
06-Feb-19 23:01 35.288489 -116.170016 34 20680ft 367kts
06-Feb-19 23:01 35.347105 -116.096159 34 19541ft 358kts
06-Feb-19 23:03 35.427012 -115.995669 34 17771ft 344kts
06-Feb-19 23:04 35.493135 -115.912337 34 16494ft 338kts
06-Feb-19 23:04 35.547158 -115.843780 35 15452ft 332kts
06-Feb-19 23:05 35.607641 -115.766780 35 14279ft 294kts
06-Feb-19 23:06 35.663591 -115.695237 36 13203ft 288kts
06-Feb-19 23:07 35.718446 -115.625192 37 12980ft 287kts
06-Feb-19 23:08 35.781926 -115.576288 1 13001ft 264kts
06-Feb-19 23:09 35.854389 -115.570196 357 12992ft 259kts
06-Feb-19 23:10 35.926786 -115.566025 357 12984ft 259kts
06-Feb-19 23:11 35.987907 -115.520464 59 12521ft 311kts
06-Feb-19 23:12 36.015806 -115.424118 61 11483ft 282kts
06-Feb-19 23:13 36.028871 -115.330936 88 10450ft 279kts
06-Feb-19 23:14 36.021106 -115.235973 91 9376ft 272kts
06-Feb-19 23:15 36.014780 -115.146393 90 8524ft 246kts
06-Feb-19 23:16 36.009349 -115.063735 90 7818ft 238kts
06-Feb-19 23:17 36.004563 -114.982369 89 6818ft 235kts
06-Feb-19 23:18 36.046003 -114.942254 12 5843ft 194kts
06-Feb-19 23:19 36.071791 -114.982884 282 4985ft 169kts
06-Feb-19 23:20 36.073825 -115.042884 269 4243ft 189kts
06-Feb-19 23:21 36.073483 -115.103563 272 2636ft 166kts
06-Feb-19 23:22 36.073647 -115.146139 269 2123ft 19kts
06-Feb-19 23:23 36.074374 -115.149693 295 2123ft 0kts
06-Feb-19 23:24 36.074721 -115.150538 298 2123ft 4kts
06-Feb-19 23:25 36.077559 -115.152541 8 2123ft 9kts
06-Feb-19 23:26 36.077825 -115.148745 100 2123ft 10kts
06-Feb-19 23:27 36.077611 -115.144144 88 2123ft 14kts
06-Feb-19 23:28 36.077674 -115.139834 87 2123ft 14kts
06-Feb-19 23:29 36.079516 -115.138476 312 2123ft 7kts
06-Feb-19 23:30 36.080140 -115.139278 314 2123ft 0kts

Navigation Log

Ident Type
Flight plan parsing failed, navigation log unavailable